sensor_id;sensor_type;location;lat;lon;timestamp;temperature;humidity
22416;DHT22;12204;50.600;4.608;2024-02-23T00:02:24;22.00;70.40
22416;DHT22;12204;50.600;4.608;2024-02-23T00:07:28;21.90;70.40
22416;DHT22;12204;50.600;4.608;2024-02-23T00:12:31;21.90;70.50
22416;DHT22;12204;50.600;4.608;2024-02-23T00:17:36;21.80;70.60
22416;DHT22;12204;50.600;4.608;2024-02-23T00:22:41;21.80;70.70
22416;DHT22;12204;50.600;4.608;2024-02-23T00:27:44;21.80;70.70
22416;DHT22;12204;50.600;4.608;2024-02-23T00:32:50;21.80;71.20
22416;DHT22;12204;50.600;4.608;2024-02-23T00:37:53;21.80;71.30
22416;DHT22;12204;50.600;4.608;2024-02-23T00:42:57;21.70;71.30
22416;DHT22;12204;50.600;4.608;2024-02-23T00:48:03;21.70;71.20
22416;DHT22;12204;50.600;4.608;2024-02-23T00:53:08;21.70;71.30
22416;DHT22;12204;50.600;4.608;2024-02-23T00:58:12;21.60;71.30
22416;DHT22;12204;50.600;4.608;2024-02-23T01:03:16;21.60;71.60
22416;DHT22;12204;50.600;4.608;2024-02-23T01:08:20;21.60;71.70
22416;DHT22;12204;50.600;4.608;2024-02-23T01:13:23;21.60;71.90
22416;DHT22;12204;50.600;4.608;2024-02-23T01:18:28;21.60;71.80
22416;DHT22;12204;50.600;4.608;2024-02-23T01:23:32;21.70;71.90
22416;DHT22;12204;50.600;4.608;2024-02-23T01:28:35;21.70;71.90
22416;DHT22;12204;50.600;4.608;2024-02-23T01:33:40;21.70;71.70
22416;DHT22;12204;50.600;4.608;2024-02-23T01:38:44;21.80;71.70
22416;DHT22;12204;50.600;4.608;2024-02-23T01:43:47;21.70;71.50
22416;DHT22;12204;50.600;4.608;2024-02-23T01:48:52;21.70;71.60
22416;DHT22;12204;50.600;4.608;2024-02-23T01:53:56;21.70;71.40
22416;DHT22;12204;50.600;4.608;2024-02-23T01:59:00;21.70;71.60
22416;DHT22;12204;50.600;4.608;2024-02-23T02:04:07;21.70;71.50
22416;DHT22;12204;50.600;4.608;2024-02-23T02:09:10;21.70;71.50
22416;DHT22;12204;50.600;4.608;2024-02-23T02:14:14;21.70;71.50
22416;DHT22;12204;50.600;4.608;2024-02-23T02:19:19;21.70;71.70
22416;DHT22;12204;50.600;4.608;2024-02-23T02:24:22;21.70;71.80
22416;DHT22;12204;50.600;4.608;2024-02-23T02:29:26;21.60;71.70
22416;DHT22;12204;50.600;4.608;2024-02-23T02:34:31;21.60;72.00
22416;DHT22;12204;50.600;4.608;2024-02-23T02:39:34;21.60;72.00
22416;DHT22;12204;50.600;4.608;2024-02-23T02:44:38;21.60;72.20
22416;DHT22;12204;50.600;4.608;2024-02-23T02:49:43;21.60;72.00
22416;DHT22;12204;50.600;4.608;2024-02-23T02:54:46;21.60;72.00
22416;DHT22;12204;50.600;4.608;2024-02-23T02:59:51;21.60;71.60
22416;DHT22;12204;50.600;4.608;2024-02-23T03:04:55;21.60;72.20
22416;DHT22;12204;50.600;4.608;2024-02-23T03:09:59;21.70;71.50
22416;DHT22;12204;50.600;4.608;2024-02-23T03:15:03;21.80;70.90
22416;DHT22;12204;50.600;4.608;2024-02-23T03:20:11;21.90;70.30
22416;DHT22;12204;50.600;4.608;2024-02-23T03:25:15;22.10;69.60
22416;DHT22;12204;50.600;4.608;2024-02-23T03:30:18;22.20;69.30
22416;DHT22;12204;50.600;4.608;2024-02-23T03:35:23;22.20;68.90
22416;DHT22;12204;50.600;4.608;2024-02-23T03:40:27;22.30;68.70
22416;DHT22;12204;50.600;4.608;2024-02-23T03:45:30;22.40;68.50
22416;DHT22;12204;50.600;4.608;2024-02-23T03:50:35;22.40;68.20
22416;DHT22;12204;50.600;4.608;2024-02-23T03:55:38;22.40;68.20
22416;DHT22;12204;50.600;4.608;2024-02-23T04:00:42;22.40;67.90
22416;DHT22;12204;50.600;4.608;2024-02-23T04:05:47;22.40;67.90
22416;DHT22;12204;50.600;4.608;2024-02-23T04:10:51;22.40;67.90
22416;DHT22;12204;50.600;4.608;2024-02-23T04:15:54;22.40;67.90
22416;DHT22;12204;50.600;4.608;2024-02-23T04:21:00;22.40;67.90
22416;DHT22;12204;50.600;4.608;2024-02-23T04:26:04;22.40;68.00
22416;DHT22;12204;50.600;4.608;2024-02-23T04:31:08;22.40;68.10
22416;DHT22;12204;50.600;4.608;2024-02-23T04:36:13;22.30;68.00
22416;DHT22;12204;50.600;4.608;2024-02-23T04:41:20;22.30;68.00
22416;DHT22;12204;50.600;4.608;2024-02-23T04:46:24;22.30;68.30
22416;DHT22;12204;50.600;4.608;2024-02-23T04:51:28;22.30;68.50
22416;DHT22;12204;50.600;4.608;2024-02-23T04:56:32;22.20;68.70
22416;DHT22;12204;50.600;4.608;2024-02-23T05:01:36;22.20;68.90
22416;DHT22;12204;50.600;4.608;2024-02-23T05:06:41;22.20;69.20
22416;DHT22;12204;50.600;4.608;2024-02-23T05:11:45;22.10;69.40
22416;DHT22;12204;50.600;4.608;2024-02-23T05:16:49;22.10;69.20
22416;DHT22;12204;50.600;4.608;2024-02-23T05:21:54;22.00;69.20
22416;DHT22;12204;50.600;4.608;2024-02-23T05:26:57;22.00;69.70
22416;DHT22;12204;50.600;4.608;2024-02-23T05:32:04;22.00;69.70
22416;DHT22;12204;50.600;4.608;2024-02-23T05:37:09;22.00;69.80
22416;DHT22;12204;50.600;4.608;2024-02-23T05:42:13;22.00;70.00
22416;DHT22;12204;50.600;4.608;2024-02-23T05:47:16;21.90;70.10
22416;DHT22;12204;50.600;4.608;2024-02-23T05:52:21;21.90;70.00
22416;DHT22;12204;50.600;4.608;2024-02-23T05:57:24;21.90;70.30
22416;DHT22;12204;50.600;4.608;2024-02-23T06:02:28;21.80;70.20
22416;DHT22;12204;50.600;4.608;2024-02-23T06:07:33;21.80;70.40
22416;DHT22;12204;50.600;4.608;2024-02-23T06:12:36;21.70;70.80
22416;DHT22;12204;50.600;4.608;2024-02-23T06:17:41;21.70;70.80
22416;DHT22;12204;50.600;4.608;2024-02-23T06:22:46;21.70;71.00
22416;DHT22;12204;50.600;4.608;2024-02-23T06:27:49;21.70;71.10
22416;DHT22;12204;50.600;4.608;2024-02-23T06:32:52;21.70;71.20
22416;DHT22;12204;50.600;4.608;2024-02-23T06:37:57;21.60;71.20
22416;DHT22;12204;50.600;4.608;2024-02-23T06:43:01;21.60;71.30
22416;DHT22;12204;50.600;4.608;2024-02-23T06:48:05;21.60;71.40
22416;DHT22;12204;50.600;4.608;2024-02-23T06:53:11;21.60;71.60
22416;DHT22;12204;50.600;4.608;2024-02-23T06:58:15;21.60;71.70
22416;DHT22;12204;50.600;4.608;2024-02-23T07:03:18;21.60;71.50
22416;DHT22;12204;50.600;4.608;2024-02-23T07:08:23;21.50;71.70
22416;DHT22;12204;50.600;4.608;2024-02-23T07:13:27;21.50;71.70
22416;DHT22;12204;50.600;4.608;2024-02-23T07:18:31;21.50;71.60
22416;DHT22;12204;50.600;4.608;2024-02-23T07:23:37;21.50;71.80
22416;DHT22;12204;50.600;4.608;2024-02-23T07:28:40;21.50;71.60
22416;DHT22;12204;50.600;4.608;2024-02-23T07:33:44;21.50;71.70
22416;DHT22;12204;50.600;4.608;2024-02-23T07:38:49;21.50;71.60
22416;DHT22;12204;50.600;4.608;2024-02-23T07:43:52;21.50;70.40
22416;DHT22;12204;50.600;4.608;2024-02-23T07:48:56;21.40;67.90
22416;DHT22;12204;50.600;4.608;2024-02-23T07:54:01;21.20;64.90
22416;DHT22;12204;50.600;4.608;2024-02-23T07:59:05;21.10;65.40
22416;DHT22;12204;50.600;4.608;2024-02-23T08:04:08;21.10;66.00
22416;DHT22;12204;50.600;4.608;2024-02-23T08:09:13;21.20;66.60
22416;DHT22;12204;50.600;4.608;2024-02-23T08:14:16;21.20;67.00
22416;DHT22;12204;50.600;4.608;2024-02-23T08:19:20;21.20;67.20
22416;DHT22;12204;50.600;4.608;2024-02-23T08:24:27;21.20;67.70
22416;DHT22;12204;50.600;4.608;2024-02-23T08:29:31;21.20;68.00
22416;DHT22;12204;50.600;4.608;2024-02-23T08:34:34;21.10;68.20
22416;DHT22;12204;50.600;4.608;2024-02-23T08:39:39;21.10;68.90
22416;DHT22;12204;50.600;4.608;2024-02-23T08:44:43;21.20;69.70
22416;DHT22;12204;50.600;4.608;2024-02-23T08:49:46;21.10;69.60
22416;DHT22;12204;50.600;4.608;2024-02-23T08:54:52;21.20;69.70
22416;DHT22;12204;50.600;4.608;2024-02-23T08:59:55;21.10;69.70
22416;DHT22;12204;50.600;4.608;2024-02-23T09:05:00;21.10;69.80
22416;DHT22;12204;50.600;4.608;2024-02-23T09:10:05;21.10;69.80
22416;DHT22;12204;50.600;4.608;2024-02-23T09:15:10;21.10;69.90
22416;DHT22;12204;50.600;4.608;2024-02-23T09:20:13;21.10;69.90
22416;DHT22;12204;50.600;4.608;2024-02-23T09:25:18;21.10;70.10
22416;DHT22;12204;50.600;4.608;2024-02-23T09:30:23;21.10;70.10
22416;DHT22;12204;50.600;4.608;2024-02-23T09:35:26;21.00;70.10
22416;DHT22;12204;50.600;4.608;2024-02-23T09:40:31;21.00;70.20
22416;DHT22;12204;50.600;4.608;2024-02-23T09:45:34;21.00;70.30
22416;DHT22;12204;50.600;4.608;2024-02-23T09:50:40;21.00;70.40
22416;DHT22;12204;50.600;4.608;2024-02-23T09:55:47;21.00;70.50
22416;DHT22;12204;50.600;4.608;2024-02-23T10:00:53;21.00;70.40
22416;DHT22;12204;50.600;4.608;2024-02-23T10:05:57;21.00;70.50
22416;DHT22;12204;50.600;4.608;2024-02-23T10:11:04;21.00;70.50
22416;DHT22;12204;50.600;4.608;2024-02-23T10:16:09;21.00;70.50
22416;DHT22;12204;50.600;4.608;2024-02-23T10:21:16;20.90;70.50
22416;DHT22;12204;50.600;4.608;2024-02-23T10:26:21;21.00;71.70
22416;DHT22;12204;50.600;4.608;2024-02-23T10:31:25;21.00;71.30
22416;DHT22;12204;50.600;4.608;2024-02-23T10:36:30;21.00;71.50
22416;DHT22;12204;50.600;4.608;2024-02-23T10:41:36;21.00;71.30
22416;DHT22;12204;50.600;4.608;2024-02-23T10:46:40;21.00;71.20
22416;DHT22;12204;50.600;4.608;2024-02-23T10:51:44;21.00;71.10
22416;DHT22;12204;50.600;4.608;2024-02-23T10:56:53;20.90;71.70
22416;DHT22;12204;50.600;4.608;2024-02-23T11:01:59;20.90;71.00
22416;DHT22;12204;50.600;4.608;2024-02-23T11:07:03;20.90;71.00
22416;DHT22;12204;50.600;4.608;2024-02-23T11:12:11;20.90;70.80
22416;DHT22;12204;50.600;4.608;2024-02-23T11:17:18;20.90;70.90
22416;DHT22;12204;50.600;4.608;2024-02-23T11:22:26;20.90;70.80
22416;DHT22;12204;50.600;4.608;2024-02-23T11:27:41;20.80;70.70
22416;DHT22;12204;50.600;4.608;2024-02-23T11:32:47;20.90;70.70
22416;DHT22;12204;50.600;4.608;2024-02-23T11:37:56;20.90;70.70
22416;DHT22;12204;50.600;4.608;2024-02-23T11:43:03;20.80;70.60
22416;DHT22;12204;50.600;4.608;2024-02-23T11:48:07;20.80;70.50
22416;DHT22;12204;50.600;4.608;2024-02-23T11:53:11;20.80;70.50
22416;DHT22;12204;50.600;4.608;2024-02-23T11:58:17;20.80;70.60
22416;DHT22;12204;50.600;4.608;2024-02-23T12:03:20;20.80;70.60
22416;DHT22;12204;50.600;4.608;2024-02-23T12:08:27;20.80;70.60
22416;DHT22;12204;50.600;4.608;2024-02-23T12:13:40;20.80;70.60
22416;DHT22;12204;50.600;4.608;2024-02-23T12:18:44;20.80;70.60
22416;DHT22;12204;50.600;4.608;2024-02-23T12:23:49;20.80;70.60
22416;DHT22;12204;50.600;4.608;2024-02-23T12:29:00;20.80;70.70
22416;DHT22;12204;50.600;4.608;2024-02-23T12:34:04;20.80;70.70
22416;DHT22;12204;50.600;4.608;2024-02-23T12:39:09;20.80;70.70
22416;DHT22;12204;50.600;4.608;2024-02-23T12:44:14;20.80;70.60
22416;DHT22;12204;50.600;4.608;2024-02-23T12:49:20;20.70;70.70
22416;DHT22;12204;50.600;4.608;2024-02-23T12:54:23;20.70;70.70
22416;DHT22;12204;50.600;4.608;2024-02-23T12:59:28;20.70;70.60
22416;DHT22;12204;50.600;4.608;2024-02-23T13:04:31;20.70;70.70
22416;DHT22;12204;50.600;4.608;2024-02-23T13:09:35;20.70;70.60
22416;DHT22;12204;50.600;4.608;2024-02-23T13:14:40;20.70;70.60
22416;DHT22;12204;50.600;4.608;2024-02-23T13:19:43;20.70;70.80
22416;DHT22;12204;50.600;4.608;2024-02-23T13:25:06;20.70;70.80
22416;DHT22;12204;50.600;4.608;2024-02-23T13:30:12;20.70;70.70
22416;DHT22;12204;50.600;4.608;2024-02-23T13:35:17;20.70;70.70
22416;DHT22;12204;50.600;4.608;2024-02-23T13:40:20;20.70;70.80
22416;DHT22;12204;50.600;4.608;2024-02-23T13:45:25;20.60;70.80
22416;DHT22;12204;50.600;4.608;2024-02-23T13:50:29;20.60;70.90
22416;DHT22;12204;50.600;4.608;2024-02-23T13:55:33;20.60;70.90
22416;DHT22;12204;50.600;4.608;2024-02-23T14:00:38;20.60;70.90
22416;DHT22;12204;50.600;4.608;2024-02-23T14:05:41;20.60;70.90
22416;DHT22;12204;50.600;4.608;2024-02-23T14:10:46;20.70;71.00
22416;DHT22;12204;50.600;4.608;2024-02-23T14:15:51;20.70;71.00
22416;DHT22;12204;50.600;4.608;2024-02-23T14:20:55;20.70;70.80
22416;DHT22;12204;50.600;4.608;2024-02-23T14:25:59;20.80;71.00
22416;DHT22;12204;50.600;4.608;2024-02-23T14:31:04;20.80;71.00
22416;DHT22;12204;50.600;4.608;2024-02-23T14:36:08;20.80;71.20
22416;DHT22;12204;50.600;4.608;2024-02-23T14:41:11;20.80;71.20
22416;DHT22;12204;50.600;4.608;2024-02-23T14:46:16;20.80;71.10
22416;DHT22;12204;50.600;4.608;2024-02-23T14:51:19;20.80;71.20
22416;DHT22;12204;50.600;4.608;2024-02-23T14:56:23;20.80;71.20
22416;DHT22;12204;50.600;4.608;2024-02-23T15:01:28;20.80;71.30
22416;DHT22;12204;50.600;4.608;2024-02-23T15:06:31;20.80;71.40
22416;DHT22;12204;50.600;4.608;2024-02-23T15:11:35;20.80;71.40
22416;DHT22;12204;50.600;4.608;2024-02-23T15:16:40;20.80;71.40
22416;DHT22;12204;50.600;4.608;2024-02-23T15:21:43;20.70;71.30
22416;DHT22;12204;50.600;4.608;2024-02-23T15:26:47;20.70;71.20
22416;DHT22;12204;50.600;4.608;2024-02-23T15:31:52;20.70;71.30
22416;DHT22;12204;50.600;4.608;2024-02-23T15:36:55;20.80;71.30
22416;DHT22;12204;50.600;4.608;2024-02-23T15:41:58;20.80;71.30
22416;DHT22;12204;50.600;4.608;2024-02-23T15:47:04;20.90;71.40
22416;DHT22;12204;50.600;4.608;2024-02-23T15:52:08;20.90;71.50
22416;DHT22;12204;50.600;4.608;2024-02-23T15:57:12;20.90;71.50
22416;DHT22;12204;50.600;4.608;2024-02-23T16:02:16;20.90;71.50
22416;DHT22;12204;50.600;4.608;2024-02-23T16:07:20;20.80;71.40
22416;DHT22;12204;50.600;4.608;2024-02-23T16:12:23;20.90;71.40
22416;DHT22;12204;50.600;4.608;2024-02-23T16:17:28;20.80;71.40
22416;DHT22;12204;50.600;4.608;2024-02-23T16:22:32;20.80;71.60
22416;DHT22;12204;50.600;4.608;2024-02-23T16:27:36;20.90;71.80
22416;DHT22;12204;50.600;4.608;2024-02-23T16:32:42;21.00;71.90
22416;DHT22;12204;50.600;4.608;2024-02-23T16:37:45;21.00;72.40
22416;DHT22;12204;50.600;4.608;2024-02-23T16:42:49;21.00;72.40
22416;DHT22;12204;50.600;4.608;2024-02-23T16:47:54;20.90;70.80
22416;DHT22;12204;50.600;4.608;2024-02-23T16:52:58;20.80;71.10
22416;DHT22;12204;50.600;4.608;2024-02-23T16:58:02;20.80;69.50
22416;DHT22;12204;50.600;4.608;2024-02-23T17:03:07;20.70;69.30
22416;DHT22;12204;50.600;4.608;2024-02-23T17:08:10;20.80;69.80
22416;DHT22;12204;50.600;4.608;2024-02-23T17:13:15;20.80;70.00
22416;DHT22;12204;50.600;4.608;2024-02-23T17:18:20;20.90;70.50
22416;DHT22;12204;50.600;4.608;2024-02-23T17:23:24;20.80;70.70
22416;DHT22;12204;50.600;4.608;2024-02-23T17:28:30;20.80;70.90
22416;DHT22;12204;50.600;4.608;2024-02-23T17:33:37;20.80;71.20
22416;DHT22;12204;50.600;4.608;2024-02-23T17:38:40;20.70;71.60
22416;DHT22;12204;50.600;4.608;2024-02-23T17:43:44;20.70;71.50
22416;DHT22;12204;50.600;4.608;2024-02-23T17:48:49;20.70;71.70
22416;DHT22;12204;50.600;4.608;2024-02-23T17:53:52;20.70;71.80
22416;DHT22;12204;50.600;4.608;2024-02-23T17:58:59;20.70;71.90
22416;DHT22;12204;50.600;4.608;2024-02-23T18:04:04;20.60;71.90
22416;DHT22;12204;50.600;4.608;2024-02-23T18:09:10;20.60;71.90
22416;DHT22;12204;50.600;4.608;2024-02-23T18:14:13;20.70;72.10
22416;DHT22;12204;50.600;4.608;2024-02-23T18:19:18;20.80;72.10
22416;DHT22;12204;50.600;4.608;2024-02-23T18:24:22;20.90;71.90
22416;DHT22;12204;50.600;4.608;2024-02-23T18:29:26;21.10;71.70
22416;DHT22;12204;50.600;4.608;2024-02-23T18:34:30;21.20;71.50
22416;DHT22;12204;50.600;4.608;2024-02-23T18:39:34;21.30;71.20
22416;DHT22;12204;50.600;4.608;2024-02-23T18:44:38;21.40;71.20
22416;DHT22;12204;50.600;4.608;2024-02-23T18:49:43;21.50;71.20
22416;DHT22;12204;50.600;4.608;2024-02-23T18:54:48;21.50;71.10
22416;DHT22;12204;50.600;4.608;2024-02-23T18:59:51;21.60;71.10
22416;DHT22;12204;50.600;4.608;2024-02-23T19:04:56;21.60;71.10
22416;DHT22;12204;50.600;4.608;2024-02-23T19:10:00;21.60;71.30
22416;DHT22;12204;50.600;4.608;2024-02-23T19:15:04;21.60;71.20
22416;DHT22;12204;50.600;4.608;2024-02-23T19:20:11;21.60;71.10
22416;DHT22;12204;50.600;4.608;2024-02-23T19:25:14;21.60;71.00
22416;DHT22;12204;50.600;4.608;2024-02-23T19:30:18;21.60;71.10
22416;DHT22;12204;50.600;4.608;2024-02-23T19:35:23;21.60;71.10
22416;DHT22;12204;50.600;4.608;2024-02-23T19:40:27;21.60;70.60
22416;DHT22;12204;50.600;4.608;2024-02-23T19:45:30;21.60;70.50
22416;DHT22;12204;50.600;4.608;2024-02-23T19:50:35;21.50;70.50
22416;DHT22;12204;50.600;4.608;2024-02-23T19:55:40;21.50;70.50
22416;DHT22;12204;50.600;4.608;2024-02-23T20:00:46;21.50;70.50
22416;DHT22;12204;50.600;4.608;2024-02-23T20:05:51;21.50;70.80
22416;DHT22;12204;50.600;4.608;2024-02-23T20:10:55;21.40;70.80
22416;DHT22;12204;50.600;4.608;2024-02-23T20:16:02;21.40;70.80
22416;DHT22;12204;50.600;4.608;2024-02-23T20:21:07;21.40;71.00
22416;DHT22;12204;50.600;4.608;2024-02-23T20:26:11;21.30;71.10
22416;DHT22;12204;50.600;4.608;2024-02-23T20:31:14;21.30;71.40
22416;DHT22;12204;50.600;4.608;2024-02-23T20:36:19;21.30;71.50
22416;DHT22;12204;50.600;4.608;2024-02-23T20:41:22;21.30;71.70
22416;DHT22;12204;50.600;4.608;2024-02-23T20:46:26;21.30;72.20
22416;DHT22;12204;50.600;4.608;2024-02-23T20:51:31;21.20;72.50
22416;DHT22;12204;50.600;4.608;2024-02-23T20:56:34;21.20;72.70
22416;DHT22;12204;50.600;4.608;2024-02-23T21:01:38;21.20;72.70
22416;DHT22;12204;50.600;4.608;2024-02-23T21:06:43;21.20;72.90
22416;DHT22;12204;50.600;4.608;2024-02-23T21:11:46;21.20;72.70
22416;DHT22;12204;50.600;4.608;2024-02-23T21:16:50;21.30;73.10
22416;DHT22;12204;50.600;4.608;2024-02-23T21:21:55;21.50;72.80
22416;DHT22;12204;50.600;4.608;2024-02-23T21:27:00;21.70;72.20
22416;DHT22;12204;50.600;4.608;2024-02-23T21:32:04;21.80;71.80
22416;DHT22;12204;50.600;4.608;2024-02-23T21:37:09;22.00;71.50
22416;DHT22;12204;50.600;4.608;2024-02-23T21:42:18;22.00;71.30
22416;DHT22;12204;50.600;4.608;2024-02-23T21:47:21;22.10;71.20
22416;DHT22;12204;50.600;4.608;2024-02-23T21:52:26;22.10;71.20
22416;DHT22;12204;50.600;4.608;2024-02-23T21:57:29;22.20;71.20
22416;DHT22;12204;50.600;4.608;2024-02-23T22:02:33;22.20;71.10
22416;DHT22;12204;50.600;4.608;2024-02-23T22:07:38;22.20;71.10
22416;DHT22;12204;50.600;4.608;2024-02-23T22:12:42;22.20;71.20
22416;DHT22;12204;50.600;4.608;2024-02-23T22:17:47;22.10;71.00
22416;DHT22;12204;50.600;4.608;2024-02-23T22:22:52;22.10;71.00
22416;DHT22;12204;50.600;4.608;2024-02-23T22:27:56;22.10;70.80
22416;DHT22;12204;50.600;4.608;2024-02-23T22:32:59;22.10;71.10
22416;DHT22;12204;50.600;4.608;2024-02-23T22:38:04;22.10;71.70
22416;DHT22;12204;50.600;4.608;2024-02-23T22:43:08;22.10;71.70
22416;DHT22;12204;50.600;4.608;2024-02-23T22:48:11;22.10;71.90
22416;DHT22;12204;50.600;4.608;2024-02-23T22:53:16;22.10;72.30
22416;DHT22;12204;50.600;4.608;2024-02-23T22:58:19;22.10;72.50
22416;DHT22;12204;50.600;4.608;2024-02-23T23:03:23;22.10;72.70
22416;DHT22;12204;50.600;4.608;2024-02-23T23:08:28;22.00;72.80
22416;DHT22;12204;50.600;4.608;2024-02-23T23:13:32;22.00;73.10
22416;DHT22;12204;50.600;4.608;2024-02-23T23:18:36;22.00;73.40
22416;DHT22;12204;50.600;4.608;2024-02-23T23:23:41;21.90;73.50
22416;DHT22;12204;50.600;4.608;2024-02-23T23:28:44;21.90;73.90
22416;DHT22;12204;50.600;4.608;2024-02-23T23:33:48;21.90;73.90
22416;DHT22;12204;50.600;4.608;2024-02-23T23:38:53;21.80;73.90
22416;DHT22;12204;50.600;4.608;2024-02-23T23:43:57;21.80;73.90
22416;DHT22;12204;50.600;4.608;2024-02-23T23:49:00;21.70;73.90
22416;DHT22;12204;50.600;4.608;2024-02-23T23:54:05;21.70;73.90
22416;DHT22;12204;50.600;4.608;2024-02-23T23:59:08;21.70;74.00
